createdAt,value
2018-04-15T00:00:40.968Z,24.03
2018-04-15T00:03:06.953Z,24.02
2018-04-15T00:05:32.973Z,24.01
2018-04-15T00:07:59.013Z,24.02
2018-04-15T00:10:25.033Z,24.02
2018-04-15T00:12:51.076Z,24.01
2018-04-15T00:15:17.080Z,24.02
2018-04-15T00:17:43.095Z,24.01
2018-04-15T00:20:09.103Z,24.00
2018-04-15T00:22:35.147Z,24.01
2018-04-15T00:25:01.155Z,24.01
2018-04-15T00:27:27.226Z,24.01
2018-04-15T00:29:53.206Z,24.00
2018-04-15T00:32:19.226Z,24.01
2018-04-15T00:34:45.242Z,24.00
2018-04-15T00:37:11.245Z,24.00
2018-04-15T00:39:37.257Z,23.99
2018-04-15T00:42:03.293Z,24.00
2018-04-15T00:44:29.310Z,23.99
2018-04-15T00:46:55.311Z,23.99
2018-04-15T00:49:21.319Z,23.99
2018-04-15T00:51:47.370Z,23.99
2018-04-15T00:54:13.382Z,23.98
2018-04-15T00:56:39.387Z,23.99
2018-04-15T00:59:05.434Z,23.99
2018-04-15T01:01:31.435Z,23.99
2018-04-15T01:03:57.433Z,23.98
2018-04-15T01:06:23.495Z,23.98
2018-04-15T01:08:49.519Z,23.98
2018-04-15T01:11:15.525Z,23.99
2018-04-15T01:13:41.497Z,23.98
2018-04-15T01:16:07.505Z,23.97
2018-04-15T01:18:33.557Z,23.98
2018-04-15T01:20:59.565Z,23.98
2018-04-15T01:23:25.569Z,23.97
2018-04-15T01:25:51.573Z,23.97
2018-04-15T01:28:17.612Z,23.97
2018-04-15T01:30:43.583Z,23.97
2018-04-15T01:33:09.599Z,23.97
2018-04-15T01:35:35.598Z,23.97
2018-04-15T01:38:01.607Z,23.96
2018-04-15T01:40:27.622Z,23.97
2018-04-15T01:42:53.659Z,23.96
2018-04-15T01:45:19.674Z,23.97
2018-04-15T01:47:45.683Z,23.96
2018-04-15T01:50:11.701Z,23.96
2018-04-15T01:52:37.712Z,23.96
2018-04-15T01:55:03.718Z,23.95
2018-04-15T01:57:29.724Z,23.96
2018-04-15T01:59:55.734Z,23.95
2018-04-15T02:02:21.777Z,23.95
2018-04-15T02:04:47.758Z,23.95
2018-04-15T02:07:13.766Z,23.95
2018-04-15T02:09:39.777Z,23.94
2018-04-15T02:12:05.787Z,23.95
2018-04-15T02:14:31.822Z,23.95
2018-04-15T02:16:57.793Z,23.94
2018-04-15T02:19:23.825Z,23.94
2018-04-15T02:21:49.876Z,23.94
2018-04-15T02:24:15.891Z,23.94
2018-04-15T02:26:41.942Z,23.94
2018-04-15T02:29:07.975Z,23.93
2018-04-15T02:31:33.954Z,23.93
2018-04-15T02:33:59.964Z,23.93
2018-04-15T02:36:25.999Z,23.93
2018-04-15T02:38:51.973Z,23.93
2018-04-15T02:41:18.024Z,23.92
2018-04-15T02:43:44.031Z,23.92
2018-04-15T02:46:10.041Z,23.93
2018-04-15T02:48:36.050Z,23.92
2018-04-15T02:51:02.065Z,23.93
2018-04-15T02:53:28.087Z,23.92
2018-04-15T02:55:54.134Z,23.92
2018-04-15T02:58:20.136Z,23.92
2018-04-15T03:00:46.140Z,23.93
2018-04-15T03:03:12.155Z,23.92
2018-04-15T03:05:38.199Z,23.92
2018-04-15T03:08:04.241Z,23.91
2018-04-15T03:10:30.214Z,23.91
2018-04-15T03:12:56.262Z,23.91
2018-04-15T03:15:22.270Z,23.92
2018-04-15T03:17:48.326Z,23.91
2018-04-15T03:20:14.335Z,23.91
2018-04-15T03:22:40.307Z,23.91
2018-04-15T03:25:06.293Z,23.91
2018-04-15T03:27:32.307Z,23.90
2018-04-15T03:29:58.289Z,23.91
2018-04-15T03:32:24.234Z,23.90
2018-04-15T03:34:50.213Z,23.90
2018-04-15T03:37:16.203Z,23.90
2018-04-15T03:39:42.184Z,23.90
2018-04-15T03:42:08.162Z,23.91
2018-04-15T03:44:34.136Z,23.90
2018-04-15T03:47:00.192Z,23.89
2018-04-15T03:49:26.142Z,23.91
2018-04-15T03:51:52.155Z,23.90
2018-04-15T03:54:18.166Z,23.89
2018-04-15T03:56:44.110Z,23.89
2018-04-15T03:59:10.141Z,23.89
2018-04-15T04:01:36.120Z,23.89
2018-04-15T04:04:02.138Z,23.88
2018-04-15T04:06:28.122Z,23.89
2018-04-15T04:08:54.072Z,23.88
2018-04-15T04:11:20.063Z,23.88
2018-04-15T04:13:46.123Z,23.88
2018-04-15T04:16:12.071Z,23.88
2018-04-15T04:18:38.056Z,23.89
2018-04-15T04:21:04.049Z,23.88
2018-04-15T04:23:30.033Z,23.88
2018-04-15T04:25:56.024Z,23.88
2018-04-15T04:28:22.009Z,23.87
2018-04-15T04:30:48.046Z,23.88
2018-04-15T04:33:14.055Z,23.88
2018-04-15T04:35:40.014Z,23.88
2018-04-15T04:38:06.006Z,23.88
2018-04-15T04:40:32.024Z,23.89
2018-04-15T04:42:58.046Z,23.90
2018-04-15T04:45:24.026Z,23.90
2018-04-15T04:47:50.008Z,23.90
2018-04-15T04:50:16.024Z,23.91
2018-04-15T04:52:41.980Z,23.91
2018-04-15T04:55:07.959Z,23.92
2018-04-15T04:57:33.952Z,23.91
2018-04-15T04:59:59.941Z,23.91
2018-04-15T05:02:25.959Z,23.91
2018-04-15T05:04:51.913Z,23.92
2018-04-15T05:07:17.926Z,23.92
2018-04-15T05:09:43.910Z,23.92
2018-04-15T05:12:09.891Z,23.92
2018-04-15T05:14:35.902Z,23.94
2018-04-15T05:17:01.882Z,23.93
2018-04-15T05:19:27.861Z,23.94
2018-04-15T05:21:53.836Z,23.94
2018-04-15T05:24:19.835Z,23.94
2018-04-15T05:26:45.864Z,23.95
2018-04-15T05:29:11.845Z,23.95
2018-04-15T05:31:37.792Z,23.97
2018-04-15T05:34:03.801Z,23.96
2018-04-15T05:36:29.817Z,23.96
2018-04-15T05:38:58.778Z,23.96
2018-04-15T05:41:24.783Z,23.96
2018-04-15T05:43:50.770Z,23.96
2018-04-15T05:46:16.751Z,23.97
2018-04-15T05:48:42.794Z,23.98
2018-04-15T05:51:08.840Z,23.98
2018-04-15T05:53:34.790Z,23.98
2018-04-15T05:56:00.769Z,23.98
2018-04-15T05:58:26.971Z,23.98
2018-04-15T06:00:52.984Z,23.98
2018-04-15T06:03:18.998Z,23.98
2018-04-15T06:05:44.946Z,23.99
2018-04-15T06:08:10.980Z,23.99
2018-04-15T06:10:36.970Z,23.98
2018-04-15T06:13:03.016Z,23.97
2018-04-15T06:15:28.993Z,23.96
2018-04-15T06:17:55.004Z,23.95
2018-04-15T06:20:21.261Z,23.97
2018-04-15T06:22:53.402Z,23.98
2018-04-15T06:25:19.415Z,23.98
2018-04-15T06:27:45.372Z,24.00
2018-04-15T06:30:11.411Z,24.02
2018-04-15T06:32:37.395Z,24.02
2018-04-15T06:35:03.418Z,24.04
2018-04-15T06:37:29.421Z,24.06
2018-04-15T06:39:55.433Z,24.07
2018-04-15T06:42:21.486Z,24.04
2018-04-15T06:44:47.476Z,24.08
2018-04-15T06:47:13.497Z,24.09
2018-04-15T06:49:39.485Z,24.10
2018-04-15T06:52:05.575Z,24.10
2018-04-15T06:54:31.597Z,24.12
2018-04-15T06:56:57.548Z,24.11
2018-04-15T06:59:23.528Z,24.09
2018-04-15T07:01:49.535Z,24.10
2018-04-15T07:04:15.521Z,24.12
2018-04-15T07:06:41.500Z,24.13
2018-04-15T07:09:07.519Z,24.13
2018-04-15T07:11:33.471Z,24.13
2018-04-15T07:13:59.503Z,24.15
2018-04-15T07:16:25.496Z,24.15
2018-04-15T07:18:51.466Z,24.16
2018-04-15T07:21:17.513Z,24.16
2018-04-15T07:23:43.462Z,24.17
2018-04-15T07:26:09.483Z,24.16
2018-04-15T07:28:35.513Z,24.17
2018-04-15T07:31:01.523Z,24.17
2018-04-15T07:33:27.498Z,24.19
2018-04-15T07:35:53.488Z,24.18
2018-04-15T07:38:19.469Z,24.20
2018-04-15T07:40:45.505Z,24.20
2018-04-15T07:43:11.494Z,24.21
2018-04-15T07:45:37.526Z,24.21
2018-04-15T07:48:03.510Z,24.21
2018-04-15T07:50:29.527Z,24.22
2018-04-15T07:52:55.490Z,24.23
2018-04-15T07:55:21.473Z,24.23
2018-04-15T07:57:47.502Z,24.24
2018-04-15T08:00:13.456Z,24.22
2018-04-15T08:02:39.436Z,24.23
2018-04-15T08:05:05.450Z,24.23
2018-04-15T08:07:31.409Z,24.23
2018-04-15T08:09:57.395Z,24.22
2018-04-15T08:12:23.485Z,24.23
2018-04-15T08:14:49.497Z,24.23
2018-04-15T08:17:15.508Z,24.23
2018-04-15T08:19:41.438Z,24.23
2018-04-15T08:22:07.421Z,24.24
2018-04-15T08:24:33.429Z,24.25
2018-04-15T08:26:59.396Z,24.25
2018-04-15T08:29:25.418Z,24.26
2018-04-15T08:31:51.378Z,24.27
2018-04-15T08:34:17.406Z,24.29
2018-04-15T08:36:43.389Z,24.29
2018-04-15T08:39:09.373Z,24.27
2018-04-15T08:41:35.399Z,24.28
2018-04-15T08:44:01.341Z,24.27
2018-04-15T08:46:27.326Z,24.27
2018-04-15T08:48:53.308Z,24.26
2018-04-15T08:51:19.296Z,24.28
2018-04-15T08:53:45.316Z,24.28
2018-04-15T08:56:11.297Z,24.28
2018-04-15T08:58:37.289Z,24.29
2018-04-15T09:01:03.267Z,24.30
2018-04-15T09:03:29.246Z,24.29
2018-04-15T09:05:55.259Z,24.27
2018-04-15T09:08:21.210Z,24.28
2018-04-15T09:10:47.339Z,24.28
2018-04-15T09:13:13.521Z,24.28
2018-04-15T09:15:39.531Z,24.28
2018-04-15T09:18:05.543Z,24.29
2018-04-15T09:20:31.528Z,24.30
2018-04-15T09:22:57.484Z,24.28
2018-04-15T09:25:23.490Z,24.26
2018-04-15T09:27:49.502Z,24.26
2018-04-15T09:30:15.611Z,24.26
2018-04-15T09:32:41.593Z,24.26
2018-04-15T09:35:07.601Z,24.26
2018-04-15T09:37:33.674Z,24.27
2018-04-15T09:39:59.631Z,24.26
2018-04-15T09:42:25.712Z,24.26
2018-04-15T09:44:51.695Z,24.25
2018-04-15T09:47:17.646Z,24.26
2018-04-15T09:49:43.641Z,24.26
2018-04-15T09:52:09.659Z,24.27
2018-04-15T09:54:35.627Z,24.27
2018-04-15T09:57:01.629Z,24.28
2018-04-15T09:59:27.644Z,24.28
2018-04-15T10:01:53.659Z,24.29
2018-04-15T10:04:19.769Z,24.29
2018-04-15T10:06:45.756Z,24.30
2018-04-15T10:09:11.891Z,24.31
2018-04-15T10:11:37.896Z,24.32
2018-04-15T10:14:03.837Z,24.32
2018-04-15T10:16:29.887Z,24.31
2018-04-15T10:18:56.606Z,24.31
2018-04-15T10:21:23.481Z,24.31
2018-04-15T10:23:51.005Z,24.30
2018-04-15T10:26:17.002Z,24.29
2018-04-15T10:28:42.980Z,24.29
2018-04-15T10:31:08.988Z,24.28
2018-04-15T10:33:34.968Z,24.27
2018-04-15T10:36:00.952Z,24.28
2018-04-15T10:38:26.969Z,24.27
2018-04-15T10:40:52.952Z,24.26
2018-04-15T10:43:19.011Z,24.25
2018-04-15T10:45:44.975Z,24.26
2018-04-15T10:48:10.988Z,24.25
2018-04-15T10:50:36.936Z,24.28
2018-04-15T10:53:02.969Z,24.29
2018-04-15T10:55:28.917Z,24.29
2018-04-15T10:57:54.899Z,24.30
2018-04-15T11:00:20.886Z,24.31
2018-04-15T11:02:46.869Z,24.32
2018-04-15T11:05:12.884Z,24.32
2018-04-15T11:07:38.885Z,24.32
2018-04-15T11:10:04.904Z,24.30
2018-04-15T11:12:30.879Z,24.29
2018-04-15T11:14:56.891Z,24.29
2018-04-15T11:17:22.964Z,24.28
2018-04-15T11:19:48.935Z,24.30
2018-04-15T11:22:14.948Z,24.29
2018-04-15T11:24:40.943Z,24.29
2018-04-15T11:27:06.966Z,24.28
2018-04-15T11:29:32.922Z,24.29
2018-04-15T11:31:58.908Z,24.29
2018-04-15T11:34:24.897Z,24.27
2018-04-15T11:36:50.879Z,24.27
2018-04-15T11:39:16.899Z,24.27
2018-04-15T11:41:42.847Z,24.28
2018-04-15T11:44:09.069Z,24.29
2018-04-15T11:46:35.169Z,24.28
2018-04-15T11:49:01.153Z,24.28
2018-04-15T11:51:27.672Z,24.28
2018-04-15T11:53:53.591Z,24.29
2018-04-15T11:56:19.558Z,24.31
2018-04-15T11:58:45.589Z,24.31
2018-04-15T12:01:11.648Z,24.31
2018-04-15T12:03:37.646Z,24.30
2018-04-15T12:06:03.660Z,24.31
2018-04-15T12:08:30.128Z,24.30
2018-04-15T12:10:56.241Z,24.31
2018-04-15T12:13:24.253Z,24.31
2018-04-15T12:16:04.568Z,24.31
2018-04-15T12:18:30.513Z,24.29
2018-04-15T12:20:56.543Z,24.30
2018-04-15T12:23:24.462Z,24.29
2018-04-15T12:25:52.325Z,24.30
2018-04-15T12:28:18.431Z,24.30
2018-04-15T12:30:44.406Z,24.29
2018-04-15T12:33:11.060Z,24.29
2018-04-15T12:35:37.128Z,24.28
2018-04-15T12:38:06.427Z,24.29
2018-04-15T12:40:34.392Z,24.28
2018-04-15T12:43:00.372Z,24.28
2018-04-15T12:45:26.367Z,24.27
2018-04-15T12:47:52.665Z,24.28
2018-04-15T12:50:18.705Z,24.28
2018-04-15T12:52:45.544Z,24.27
2018-04-15T12:55:11.914Z,24.28
2018-04-15T12:57:37.906Z,24.27
2018-04-15T13:00:23.535Z,24.28
2018-04-15T13:02:49.828Z,24.27
2018-04-15T13:05:15.838Z,24.27
2018-04-15T13:07:41.813Z,24.27
2018-04-15T13:10:07.891Z,24.27
2018-04-15T13:12:33.878Z,24.27
2018-04-15T13:15:01.209Z,24.28
2018-04-15T13:17:48.514Z,24.28
2018-04-15T13:20:16.352Z,24.29
2018-04-15T13:22:42.369Z,24.30
2018-04-15T13:25:08.503Z,24.29
2018-04-15T13:27:34.491Z,24.30
2018-04-15T13:30:01.019Z,24.30
2018-04-15T13:32:27.190Z,24.30
2018-04-15T13:34:53.168Z,24.30
2018-04-15T13:37:19.776Z,24.29
2018-04-15T13:39:45.775Z,24.29
2018-04-15T13:42:11.741Z,24.28
2018-04-15T13:44:37.720Z,24.28
2018-04-15T13:47:03.751Z,24.28
2018-04-15T13:49:29.851Z,24.28
2018-04-15T13:51:55.832Z,24.28
2018-04-15T13:54:22.028Z,24.28
2018-04-15T13:56:48.089Z,24.28
2018-04-15T13:59:14.073Z,24.28
2018-04-15T14:01:40.450Z,24.28
2018-04-15T14:04:07.117Z,24.28
2018-04-15T14:06:33.474Z,24.27
2018-04-15T14:08:59.470Z,24.26
2018-04-15T14:11:25.452Z,24.26
2018-04-15T14:13:51.991Z,24.26
2018-04-15T14:16:17.962Z,24.27
2018-04-15T14:18:43.995Z,24.27
2018-04-15T14:21:09.951Z,24.28
2018-04-15T14:23:35.970Z,24.28
2018-04-15T14:26:01.976Z,24.29
2018-04-15T14:28:27.957Z,24.29
2018-04-15T14:30:53.997Z,24.28
2018-04-15T14:33:20.021Z,24.27
2018-04-15T14:35:46.024Z,24.26
2018-04-15T14:38:12.049Z,24.25
2018-04-15T14:40:38.030Z,24.25
2018-04-15T14:43:04.780Z,24.25
2018-04-15T14:45:30.797Z,24.25
2018-04-15T14:47:56.811Z,24.25
2018-04-15T14:50:24.359Z,24.24
2018-04-15T14:52:50.348Z,24.24
2018-04-15T14:55:18.080Z,24.24
2018-04-15T14:57:44.175Z,24.25
2018-04-15T15:00:10.216Z,24.25
2018-04-15T15:02:36.194Z,24.26
2018-04-15T15:05:02.217Z,24.25
2018-04-15T15:07:28.243Z,24.25
2018-04-15T15:09:54.228Z,24.25
2018-04-15T15:12:29.610Z,24.26
2018-04-15T15:14:55.613Z,24.25
2018-04-15T15:17:22.865Z,24.23
2018-04-15T15:19:48.855Z,24.23
2018-04-15T15:22:15.015Z,24.23
2018-04-15T15:24:41.891Z,24.23
2018-04-15T15:27:17.557Z,24.24
2018-04-15T15:29:46.248Z,24.23
2018-04-15T15:32:13.323Z,24.23
2018-04-15T15:34:39.900Z,24.22
2018-04-15T15:37:13.089Z,24.21
2018-04-15T15:39:42.595Z,24.22
2018-04-15T15:42:09.949Z,24.22
2018-04-15T15:44:35.846Z,24.21
2018-04-15T15:47:01.906Z,24.20
2018-04-15T15:49:27.879Z,24.19
2018-04-15T15:51:53.867Z,24.20
2018-04-15T15:54:19.864Z,24.19
2018-04-15T15:56:45.849Z,24.19
2018-04-15T15:59:11.895Z,24.19
2018-04-15T16:01:37.885Z,24.19
2018-04-15T16:04:15.259Z,24.19
2018-04-15T16:06:41.271Z,24.18
2018-04-15T16:09:07.256Z,24.18
2018-04-15T16:11:33.243Z,24.19
2018-04-15T16:14:00.479Z,24.19
2018-04-15T16:16:26.547Z,24.19
2018-04-15T16:18:52.478Z,24.19
2018-04-15T16:21:18.531Z,24.17
2018-04-15T16:23:44.673Z,24.17
2018-04-15T16:26:10.660Z,24.16
2018-04-15T16:28:36.640Z,24.15
2018-04-15T16:31:02.692Z,24.14
2018-04-15T16:33:28.750Z,24.14
2018-04-15T16:35:54.924Z,24.16
2018-04-15T16:38:20.883Z,24.17
2018-04-15T16:40:47.052Z,24.19
2018-04-15T16:43:13.276Z,24.19
2018-04-15T16:45:40.809Z,24.19
2018-04-15T16:48:08.114Z,24.19
2018-04-15T16:50:34.837Z,24.18
2018-04-15T16:53:00.844Z,24.17
2018-04-15T16:55:26.845Z,24.17
2018-04-15T16:57:52.820Z,24.17
2018-04-15T17:00:19.384Z,24.17
2018-04-15T17:02:45.367Z,24.17
2018-04-15T17:05:11.399Z,24.16
2018-04-15T17:07:37.363Z,24.16
2018-04-15T17:10:03.346Z,24.15
2018-04-15T17:12:29.378Z,24.14
2018-04-15T17:14:55.333Z,24.14
2018-04-15T17:17:21.321Z,24.12
2018-04-15T17:19:47.341Z,24.13
2018-04-15T17:22:14.411Z,24.14
2018-04-15T17:24:40.387Z,24.15
2018-04-15T17:27:08.757Z,24.14
2018-04-15T17:29:34.734Z,24.13
2018-04-15T17:32:00.750Z,24.13
2018-04-15T17:34:26.745Z,24.14
2018-04-15T17:36:52.762Z,24.14
2018-04-15T17:39:18.747Z,24.15
2018-04-15T17:41:44.914Z,24.13
2018-04-15T17:44:10.893Z,24.13
2018-04-15T17:46:36.907Z,24.14
2018-04-15T17:49:02.942Z,24.13
2018-04-15T17:51:31.433Z,24.13
2018-04-15T17:53:57.449Z,24.12
2018-04-15T17:56:23.420Z,24.12
2018-04-15T17:58:49.466Z,24.11
2018-04-15T18:01:15.453Z,24.11
2018-04-15T18:03:41.730Z,24.13
2018-04-15T18:06:07.728Z,24.13
2018-04-15T18:08:33.772Z,24.13
2018-04-15T18:10:59.750Z,24.12
2018-04-15T18:13:25.772Z,24.12
2018-04-15T18:15:51.786Z,24.11
2018-04-15T18:18:17.763Z,24.11
2018-04-15T18:20:43.729Z,24.10
2018-04-15T18:23:09.743Z,24.09
2018-04-15T18:25:35.745Z,24.08
2018-04-15T18:28:01.798Z,24.08
2018-04-15T18:30:27.808Z,24.08
2018-04-15T18:32:53.826Z,24.08
2018-04-15T18:35:19.796Z,24.07
2018-04-15T18:37:45.793Z,24.07
2018-04-15T18:40:11.787Z,24.06
2018-04-15T18:42:37.778Z,24.04
2018-04-15T18:45:03.762Z,24.05
2018-04-15T18:47:29.821Z,24.07
2018-04-15T18:49:55.779Z,24.08
2018-04-15T18:52:21.764Z,24.08
2018-04-15T18:54:47.747Z,24.10
2018-04-15T18:57:13.760Z,24.10
2018-04-15T18:59:39.811Z,24.10
2018-04-15T19:02:05.800Z,24.10
2018-04-15T19:04:31.852Z,24.09
2018-04-15T19:06:57.810Z,24.11
2018-04-15T19:09:23.839Z,24.10
2018-04-15T19:11:49.829Z,24.11
2018-04-15T19:14:15.810Z,24.11
2018-04-15T19:16:41.836Z,24.11
2018-04-15T19:19:07.808Z,24.10
2018-04-15T19:21:34.027Z,24.09
2018-04-15T19:23:59.974Z,24.10
2018-04-15T19:26:25.997Z,24.09
2018-04-15T19:28:51.972Z,24.10
2018-04-15T19:31:18.053Z,24.09
2018-04-15T19:33:44.813Z,24.11
2018-04-15T19:36:11.255Z,24.10
2018-04-15T19:38:37.689Z,24.11
2018-04-15T19:41:04.426Z,24.11
2018-04-15T19:43:30.966Z,24.13
2018-04-15T19:45:57.401Z,24.14
2018-04-15T19:48:23.802Z,24.15
2018-04-15T19:50:50.543Z,24.16
2018-04-15T19:53:17.453Z,24.16
2018-04-15T19:55:44.264Z,24.17
2018-04-15T19:58:15.205Z,24.17
2018-04-15T20:00:41.503Z,24.17
2018-04-15T20:03:08.151Z,24.17
2018-04-15T20:05:34.814Z,24.18
2018-04-15T20:08:01.318Z,24.19
2018-04-15T20:10:27.959Z,24.19
2018-04-15T20:12:54.493Z,24.20
2018-04-15T20:15:22.093Z,24.20
2018-04-15T20:17:48.418Z,24.20
2018-04-15T20:20:15.403Z,24.19
2018-04-15T20:22:41.969Z,24.20
2018-04-15T20:25:08.612Z,24.20
2018-04-15T20:27:35.084Z,24.21
2018-04-15T20:30:01.748Z,24.21
2018-04-15T20:32:29.176Z,24.22
2018-04-15T20:34:55.181Z,24.22
2018-04-15T20:37:21.193Z,24.22
2018-04-15T20:39:47.187Z,24.20
2018-04-15T20:42:13.177Z,24.18
2018-04-15T20:44:39.187Z,24.18
2018-04-15T20:47:05.234Z,24.18
2018-04-15T20:49:31.235Z,24.16
2018-04-15T20:51:57.297Z,24.17
2018-04-15T20:54:23.282Z,24.16
2018-04-15T20:56:49.284Z,24.15
2018-04-15T20:59:15.259Z,24.15
2018-04-15T21:01:41.241Z,24.15
2018-04-15T21:04:07.228Z,24.14
2018-04-15T21:06:33.257Z,24.12
2018-04-15T21:08:59.235Z,24.12
2018-04-15T21:11:25.189Z,24.10
2018-04-15T21:13:51.173Z,24.10
2018-04-15T21:16:17.160Z,24.08
2018-04-15T21:18:43.182Z,24.08
2018-04-15T21:21:09.133Z,24.08
2018-04-15T21:23:35.114Z,24.08
2018-04-15T21:26:01.110Z,24.07
2018-04-15T21:28:27.081Z,24.06
2018-04-15T21:30:53.092Z,24.05
2018-04-15T21:33:19.085Z,24.04
2018-04-15T21:35:45.021Z,24.03
2018-04-15T21:38:10.999Z,24.03
2018-04-15T21:40:36.986Z,24.03
2018-04-15T21:43:02.998Z,24.02
2018-04-15T21:45:28.984Z,24.02
2018-04-15T21:47:54.965Z,24.02
2018-04-15T21:50:20.955Z,24.01
2018-04-15T21:52:46.939Z,24.00
2018-04-15T21:55:12.961Z,24.00
2018-04-15T21:57:38.900Z,24.00
2018-04-15T22:00:04.944Z,23.99
2018-04-15T22:02:30.952Z,23.99
2018-04-15T22:04:56.900Z,23.98
2018-04-15T22:07:22.911Z,23.98
2018-04-15T22:09:48.884Z,23.97
2018-04-15T22:12:14.921Z,23.98
2018-04-15T22:14:40.946Z,23.96
2018-04-15T22:17:06.890Z,23.97
2018-04-15T22:19:32.911Z,23.97
2018-04-15T22:21:58.863Z,23.96
2018-04-15T22:24:24.849Z,23.96
2018-04-15T22:26:50.871Z,23.96
2018-04-15T22:29:16.819Z,23.95
2018-04-15T22:31:42.798Z,23.95
2018-04-15T22:34:08.825Z,23.95
2018-04-15T22:36:34.843Z,23.94
2018-04-15T22:39:00.823Z,23.94
2018-04-15T22:41:26.775Z,23.93
2018-04-15T22:43:52.747Z,23.94
2018-04-15T22:46:18.745Z,23.93
2018-04-15T22:48:44.719Z,23.93
2018-04-15T22:51:10.780Z,23.92
2018-04-15T22:53:36.726Z,23.92
2018-04-15T22:56:02.740Z,23.92
2018-04-15T22:58:28.695Z,23.91
2018-04-15T23:00:54.676Z,23.91
2018-04-15T23:03:20.665Z,23.91
2018-04-15T23:05:46.647Z,23.91
2018-04-15T23:08:12.634Z,23.91
2018-04-15T23:10:38.612Z,23.90
2018-04-15T23:13:04.632Z,23.90
2018-04-15T23:15:30.583Z,23.90
2018-04-15T23:17:56.565Z,23.90
2018-04-15T23:20:22.578Z,23.90
2018-04-15T23:22:48.555Z,23.90
2018-04-15T23:25:14.542Z,23.89
2018-04-15T23:27:40.517Z,23.89
2018-04-15T23:30:06.538Z,23.89
2018-04-15T23:32:32.514Z,23.88
2018-04-15T23:34:58.497Z,23.88
2018-04-15T23:37:24.486Z,23.88
2018-04-15T23:39:50.490Z,23.88
2018-04-15T23:42:16.482Z,23.88
2018-04-15T23:44:42.465Z,23.87
2018-04-15T23:47:08.481Z,23.87
2018-04-15T23:49:34.488Z,23.88
2018-04-15T23:52:00.430Z,23.87
2018-04-15T23:54:26.419Z,23.87
2018-04-15T23:56:52.434Z,23.87
2018-04-15T23:59:18.380Z,23.87
